Time;durP1;ratioP1;P1;durP2;ratioP2;P2;SDS_P1;SDS_P2;PMS_P1;PMS_P2;Temp;Humidity;BMP_temperature;BMP_pressure;BME280_temperature;BME280_humidity;BME280_pressure;Samples;Min_cycle;Max_cycle;Signal;HPM_P1;HPM_P2
2022/11/07 00:00:14;;;;;;;18.00;4.30;;;11.90;99.90;;;;;;5047034;28;20209;-82
2022/11/07 00:02:42;;;;;;;10.77;3.30;;;11.90;99.90;;;;;;5045193;28;20206;-83
2022/11/07 00:05:09;;;;;;;14.43;4.03;;;11.90;99.90;;;;;;5051650;28;20320;-87
2022/11/07 00:07:36;;;;;;;18.20;4.07;;;12.00;99.90;;;;;;5053210;28;20286;-77
2022/11/07 00:10:03;;;;;;;20.37;5.20;;;12.00;99.90;;;;;;5033294;28;20217;-78
2022/11/07 00:12:30;;;;;;;19.23;4.50;;;12.00;99.90;;;;;;5033182;28;20203;-78
2022/11/07 00:14:57;;;;;;;20.07;4.07;;;12.10;99.90;;;;;;5033018;28;20205;-81
2022/11/07 00:17:25;;;;;;;26.93;5.57;;;12.10;99.90;;;;;;5033590;28;20213;-81
2022/11/07 00:19:52;;;;;;;31.03;5.73;;;12.20;99.90;;;;;;5033623;28;20207;-83
2022/11/07 00:22:19;;;;;;;22.10;5.17;;;12.20;99.90;;;;;;5033654;28;20205;-83
2022/11/07 00:24:46;;;;;;;23.57;4.63;;;12.20;99.90;;;;;;5035306;28;20202;-82
2022/11/07 00:27:12;;;;;;;18.50;4.63;;;12.20;99.90;;;;;;5034626;28;20222;-81
2022/11/07 00:29:39;;;;;;;11.83;3.43;;;12.20;99.90;;;;;;5034561;28;20208;-86
2022/11/07 00:32:06;;;;;;;21.60;4.10;;;12.20;99.90;;;;;;5034846;28;20325;-84
2022/11/07 00:34:35;;;;;;;12.63;3.67;;;12.20;99.90;;;;;;5035056;28;20497;-86
2022/11/07 00:37:02;;;;;;;16.30;4.20;;;12.20;99.90;;;;;;5034475;28;20595;-84
2022/11/07 00:39:29;;;;;;;20.33;4.63;;;12.20;99.90;;;;;;5034877;28;20248;-84
2022/11/07 00:41:55;;;;;;;20.50;5.47;;;12.20;99.90;;;;;;5034456;28;20495;-84
2022/11/07 00:44:23;;;;;;;18.13;4.87;;;12.20;99.90;;;;;;5034759;28;20498;-86
2022/11/07 00:46:50;;;;;;;21.67;4.73;;;12.30;99.90;;;;;;5034445;28;20669;-84
2022/11/07 00:49:17;;;;;;;21.93;4.40;;;12.30;99.90;;;;;;5034490;28;20807;-81
2022/11/07 00:51:47;;;;;;;15.70;4.13;;;12.30;99.90;;;;;;5034629;28;20545;-86
2022/11/07 00:54:14;;;;;;;18.63;4.70;;;12.30;99.90;;;;;;5034438;28;20202;-87
2022/11/07 00:56:41;;;;;;;18.73;5.30;;;12.30;99.90;;;;;;5034793;28;20285;-84
2022/11/07 00:59:09;;;;;;;18.27;4.30;;;12.30;99.90;;;;;;5034643;28;20245;-81
2022/11/07 01:01:35;;;;;;;20.20;4.27;;;12.30;99.90;;;;;;5036080;28;20202;-87
2022/11/07 01:06:48;;;;;;;21.10;4.67;;;12.30;99.90;;;;;;5027383;28;20883;-87
2022/11/07 01:09:18;;;;;;;16.87;4.13;;;12.30;99.90;;;;;;5038561;28;20211;-88
2022/11/07 01:11:45;;;;;;;22.10;4.73;;;12.20;99.90;;;;;;5038419;28;20205;-87
2022/11/07 01:14:15;;;;;;;18.40;4.53;;;12.30;99.90;;;;;;5037771;28;20210;-83
2022/11/07 01:16:42;;;;;;;18.20;4.40;;;12.30;99.90;;;;;;5037269;28;20229;-85
2022/11/07 01:19:09;;;;;;;19.13;4.00;;;12.30;99.90;;;;;;5038284;28;20209;-85
2022/11/07 01:21:37;;;;;;;25.23;5.20;;;12.30;99.90;;;;;;5038086;28;20205;-81
2022/11/07 01:24:07;;;;;;;18.43;4.10;;;12.30;99.90;;;;;;5039038;28;20202;-90
2022/11/07 01:26:35;;;;;;;15.03;3.50;;;12.30;99.90;;;;;;5039016;28;20218;-87
2022/11/07 01:29:03;;;;;;;22.27;4.60;;;12.40;99.90;;;;;;5038092;28;20218;-81
2022/11/07 01:31:30;;;;;;;24.00;4.40;;;12.40;99.90;;;;;;5062196;22;20239;-89
2022/11/07 01:33:57;;;;;;;21.13;4.37;;;12.40;99.90;;;;;;5078033;28;20202;-87
2022/11/07 01:36:24;;;;;;;21.83;5.23;;;12.40;99.90;;;;;;5077886;28;20198;-86
2022/11/07 01:38:50;;;;;;;15.60;3.37;;;12.40;99.90;;;;;;5078469;28;20201;-86
2022/11/07 01:41:23;;;;;;;17.60;4.10;;;12.40;99.90;;;;;;5078698;28;20203;-87
2022/11/07 01:43:53;;;;;;;15.50;3.63;;;12.30;99.90;;;;;;5078406;28;20805;-80
2022/11/07 01:46:21;;;;;;;16.50;3.20;;;12.30;99.90;;;;;;5076334;28;20354;-80
2022/11/07 01:48:52;;;;;;;20.27;3.40;;;12.30;99.90;;;;;;5076208;28;20201;-82
2022/11/07 01:51:20;;;;;;;22.23;3.90;;;12.30;99.90;;;;;;5078565;28;20200;-80
2022/11/07 01:53:48;;;;;;;20.33;3.83;;;12.30;99.90;;;;;;5062160;28;20213;-82
2022/11/07 01:56:18;;;;;;;25.23;4.57;;;12.30;99.90;;;;;;5059033;28;20194;-79
2022/11/07 01:58:47;;;;;;;17.77;4.00;;;12.30;99.90;;;;;;5054903;28;20621;-77
2022/11/07 02:01:15;;;;;;;16.17;3.10;;;12.30;99.90;;;;;;5057260;28;20209;-79
2022/11/07 02:03:42;;;;;;;21.73;4.13;;;12.30;99.90;;;;;;5057639;28;20202;-79
2022/11/07 02:06:14;;;;;;;15.10;3.97;;;12.30;99.90;;;;;;5054807;28;20204;-80
2022/11/07 02:08:44;;;;;;;14.83;3.70;;;12.30;99.90;;;;;;5055396;28;20190;-80
2022/11/07 02:11:12;;;;;;;15.07;4.10;;;12.30;99.90;;;;;;5055314;28;20205;-78
2022/11/07 02:13:40;;;;;;;13.97;3.43;;;12.30;99.90;;;;;;5053412;28;20202;-79
2022/11/07 02:16:08;;;;;;;21.83;4.03;;;12.30;99.90;;;;;;5054736;28;20237;-79
2022/11/07 02:18:36;;;;;;;14.43;3.63;;;12.30;99.90;;;;;;5054352;28;20206;-79
2022/11/07 02:21:08;;;;;;;10.63;2.80;;;12.20;99.90;;;;;;5055268;28;20301;-80
2022/11/07 02:23:40;;;;;;;11.50;2.37;;;12.20;99.90;;;;;;5054761;28;20194;-78
2022/11/07 02:26:09;;;;;;;16.93;4.00;;;12.20;99.90;;;;;;5054141;28;20198;-78
2022/11/07 02:28:37;;;;;;;13.43;3.53;;;12.20;99.90;;;;;;5054572;28;20656;-78
2022/11/07 02:31:04;;;;;;;12.37;3.93;;;12.20;99.90;;;;;;5053967;28;20677;-80
2022/11/07 02:33:31;;;;;;;15.30;3.70;;;12.30;99.90;;;;;;5054124;28;20196;-80
2022/11/07 02:35:58;;;;;;;12.30;3.10;;;12.30;99.90;;;;;;5054195;28;20205;-78
2022/11/07 02:38:29;;;;;;;13.63;3.33;;;12.20;99.90;;;;;;5056410;28;20205;-84
2022/11/07 02:41:00;;;;;;;15.80;3.40;;;12.20;99.90;;;;;;5056254;28;20247;-84
2022/11/07 02:43:29;;;;;;;13.80;3.43;;;12.20;99.90;;;;;;5056733;28;20261;-85
2022/11/07 02:45:58;;;;;;;10.73;3.27;;;12.20;99.90;;;;;;5055801;28;20310;-84
2022/11/07 02:48:28;;;;;;;13.67;3.30;;;12.20;99.90;;;;;;5054715;28;20224;-79
2022/11/07 02:50:55;;;;;;;14.63;3.10;;;12.20;99.90;;;;;;5054693;28;20205;-79
2022/11/07 02:53:22;;;;;;;10.67;3.50;;;12.20;99.90;;;;;;5055149;28;20228;-81
2022/11/07 02:55:49;;;;;;;18.73;3.80;;;12.20;99.90;;;;;;5056002;28;20206;-82
2022/11/07 02:58:16;;;;;;;12.83;3.30;;;12.10;99.90;;;;;;5055781;28;20531;-82
2022/11/07 03:00:44;;;;;;;10.87;2.90;;;12.10;99.90;;;;;;5055170;28;20233;-81
2022/11/07 03:03:12;;;;;;;14.60;3.30;;;12.10;99.90;;;;;;5055077;28;20193;-82
2022/11/07 03:05:39;;;;;;;14.67;3.50;;;12.00;99.90;;;;;;5054460;28;20206;-81
2022/11/07 03:08:06;;;;;;;20.77;4.33;;;12.00;99.90;;;;;;5053632;28;20218;-80
2022/11/07 03:10:33;;;;;;;14.70;3.13;;;12.10;99.90;;;;;;5054777;28;20709;-79
2022/11/07 03:13:00;;;;;;;11.07;3.63;;;12.10;99.90;;;;;;5053955;28;20846;-78
2022/11/07 03:15:27;;;;;;;19.90;4.03;;;12.10;99.90;;;;;;5053180;28;20472;-78
2022/11/07 03:17:58;;;;;;;15.30;3.50;;;12.10;99.90;;;;;;5054278;28;20204;-80
2022/11/07 03:20:25;;;;;;;20.10;3.53;;;12.10;99.90;;;;;;5053869;28;20201;-80
2022/11/07 03:22:52;;;;;;;15.50;4.57;;;12.00;99.90;;;;;;5053339;28;20662;-79
2022/11/07 03:25:19;;;;;;;18.20;3.53;;;12.00;99.90;;;;;;5053430;28;20243;-82
2022/11/07 03:27:47;;;;;;;11.93;3.03;;;12.00;99.90;;;;;;5053925;28;20598;-79
2022/11/07 03:30:14;;;;;;;14.43;3.93;;;12.00;99.90;;;;;;5053082;28;20676;-79
2022/11/07 03:32:41;;;;;;;13.97;3.53;;;11.90;99.90;;;;;;5053400;28;20237;-79
2022/11/07 03:35:10;;;;;;;14.80;3.47;;;12.00;99.90;;;;;;5053858;28;20201;-79
2022/11/07 03:37:36;;;;;;;18.87;4.10;;;12.00;99.90;;;;;;5053417;28;20202;-84
2022/11/07 03:40:04;;;;;;;12.33;3.30;;;12.00;99.90;;;;;;5054871;28;20681;-84
2022/11/07 03:42:31;;;;;;;15.67;3.70;;;12.00;99.90;;;;;;5054507;28;20285;-84
2022/11/07 03:44:57;;;;;;;17.70;4.17;;;12.00;99.90;;;;;;5053876;28;20206;-80
2022/11/07 03:47:24;;;;;;;13.73;3.70;;;12.00;99.90;;;;;;5054019;28;20221;-80
2022/11/07 03:49:51;;;;;;;12.80;3.37;;;12.00;99.90;;;;;;5053843;28;20202;-81
2022/11/07 03:52:19;;;;;;;15.63;3.07;;;11.90;99.90;;;;;;5053960;28;20217;-78
2022/11/07 03:54:46;;;;;;;15.93;3.87;;;11.90;99.90;;;;;;5053746;28;20202;-84
2022/11/07 03:57:13;;;;;;;7.53;2.53;;;11.80;99.90;;;;;;5053633;28;20202;-80
2022/11/07 03:59:40;;;;;;;19.70;8.43;;;11.80;99.90;;;;;;5053963;28;20211;-86
2022/11/07 04:02:07;;;;;;;13.27;3.37;;;11.80;99.90;;;;;;5054132;28;20205;-78
2022/11/07 04:04:34;;;;;;;12.37;2.33;;;11.80;99.90;;;;;;5053836;28;20293;-88
2022/11/07 04:07:01;;;;;;;9.23;2.33;;;11.80;99.90;;;;;;5054107;28;20214;-79
2022/11/07 04:09:29;;;;;;;9.53;2.47;;;11.80;99.90;;;;;;5077773;22;20236;-84
2022/11/07 04:17:26;;;;;;;9.43;2.47;;;11.80;99.90;;;;;;5074303;28;20539;-79
2022/11/07 04:19:54;;;;;;;12.63;2.77;;;11.80;99.90;;;;;;5073733;28;20197;-81
2022/11/07 04:22:22;;;;;;;7.63;2.73;;;11.80;99.90;;;;;;5074059;28;20203;-81
2022/11/07 04:24:50;;;;;;;9.70;2.93;;;11.80;99.90;;;;;;5074088;28;20279;-79
2022/11/07 04:30:17;;;;;;;10.00;2.53;;;11.80;99.90;;;;;;5073400;28;20196;-81
2022/11/07 04:32:44;;;;;;;13.07;3.00;;;11.80;99.90;;;;;;5073980;28;20278;-81
2022/11/07 04:35:11;;;;;;;13.13;2.73;;;11.80;99.90;;;;;;5074028;28;20197;-81
2022/11/07 04:37:38;;;;;;;13.70;3.07;;;11.80;99.90;;;;;;5077937;28;20197;-84
2022/11/07 04:40:08;;;;;;;13.73;2.87;;;11.80;99.90;;;;;;5077793;28;20500;-79
2022/11/07 04:42:35;;;;;;;13.03;3.20;;;11.80;99.90;;;;;;5077954;28;20208;-84
2022/11/07 04:45:02;;;;;;;14.90;4.00;;;11.80;99.90;;;;;;5076870;28;20208;-83
2022/11/07 04:47:29;;;;;;;14.37;3.20;;;11.80;99.90;;;;;;5076218;28;20225;-80
2022/11/07 04:49:56;;;;;;;9.87;3.10;;;11.80;99.90;;;;;;5077289;28;20335;-79
2022/11/07 04:52:22;;;;;;;12.73;3.20;;;11.70;99.90;;;;;;5069271;28;20570;-80
2022/11/07 04:54:49;;;;;;;11.10;3.27;;;11.80;99.90;;;;;;5056300;28;20209;-80
2022/11/07 04:57:18;;;;;;;6.70;2.87;;;11.80;99.90;;;;;;5056567;28;20221;-81
2022/11/07 04:59:45;;;;;;;12.00;3.20;;;11.80;99.90;;;;;;5056661;28;20594;-81
2022/11/07 05:02:12;;;;;;;14.80;3.30;;;11.80;99.90;;;;;;5056252;28;20719;-82
2022/11/07 05:04:39;;;;;;;15.27;4.00;;;11.80;99.90;;;;;;5056476;28;20206;-78
2022/11/07 05:07:07;;;;;;;11.50;3.00;;;11.80;99.90;;;;;;5056659;28;20221;-80
2022/11/07 05:09:34;;;;;;;13.53;3.37;;;11.80;99.90;;;;;;5055926;28;20238;-81
2022/11/07 05:12:01;;;;;;;13.67;3.37;;;11.80;99.90;;;;;;5056296;28;20202;-78
2022/11/07 05:14:30;;;;;;;14.33;3.60;;;11.80;99.90;;;;;;5055926;28;20741;-79
2022/11/07 05:16:58;;;;;;;22.87;3.67;;;11.80;99.90;;;;;;5056220;28;20206;-80
2022/11/07 05:19:25;;;;;;;14.43;3.10;;;11.80;99.90;;;;;;5056311;28;20613;-82
2022/11/07 05:23:11;;;;;;;16.93;3.47;;;11.80;99.90;;;;;;5055915;28;20201;-82
2022/11/07 05:24:39;;;;;;;17.33;3.67;;;11.90;99.90;;;;;;5056082;28;20262;-80
2022/11/07 05:27:06;;;;;;;15.00;3.47;;;11.90;99.90;;;;;;5055819;28;20230;-79
2022/11/07 05:29:34;;;;;;;14.93;3.13;;;11.90;99.90;;;;;;5055054;28;20198;-81
2022/11/07 05:32:01;;;;;;;10.40;2.63;;;11.90;99.90;;;;;;5056239;28;20212;-79
2022/11/07 05:34:28;;;;;;;13.60;2.60;;;11.90;99.90;;;;;;5056368;28;20294;-81
2022/11/07 05:36:56;;;;;;;13.90;3.00;;;11.90;99.90;;;;;;5055552;28;20251;-79
2022/11/07 05:39:23;;;;;;;13.73;2.33;;;11.90;99.90;;;;;;5056016;28;20833;-81
2022/11/07 05:41:50;;;;;;;12.13;3.30;;;11.90;99.90;;;;;;5056007;28;20202;-80
2022/11/07 05:44:17;;;;;;;16.73;3.57;;;11.90;99.90;;;;;;5055460;28;20497;-78
2022/11/07 05:46:45;;;;;;;14.27;2.90;;;11.90;99.90;;;;;;5055628;28;20210;-82
2022/11/07 05:49:12;;;;;;;13.30;2.73;;;11.80;99.90;;;;;;5056751;28;20228;-79
2022/11/07 05:51:40;;;;;;;11.27;2.97;;;11.80;99.90;;;;;;5055921;28;20206;-84
2022/11/07 05:54:07;;;;;;;15.90;3.27;;;11.80;99.90;;;;;;5056081;28;20300;-86
2022/11/07 05:56:36;;;;;;;9.80;3.10;;;11.80;99.90;;;;;;5056529;28;20197;-84
2022/11/07 05:59:03;;;;;;;14.70;3.53;;;11.80;99.90;;;;;;5068178;22;20244;-81
2022/11/07 06:01:30;;;;;;;13.57;3.40;;;11.80;99.90;;;;;;5075951;28;20198;-80
2022/11/07 06:03:59;;;;;;;14.37;3.17;;;11.80;99.90;;;;;;5076070;28;20204;-82
2022/11/07 06:06:25;;;;;;;15.57;3.53;;;11.80;99.90;;;;;;5075961;28;20310;-82
2022/11/07 06:08:52;;;;;;;12.67;3.77;;;11.80;99.90;;;;;;5075745;28;20257;-78
2022/11/07 06:11:19;;;;;;;12.60;3.47;;;11.80;99.90;;;;;;5075402;28;20197;-79
2022/11/07 06:13:46;;;;;;;13.53;3.63;;;11.80;99.90;;;;;;5076193;28;20213;-82
2022/11/07 06:16:13;;;;;;;17.53;4.63;;;11.90;99.90;;;;;;5075964;28;20244;-82
2022/11/07 06:18:39;;;;;;;18.20;3.83;;;11.90;99.90;;;;;;5076071;28;20223;-79
2022/11/07 06:21:08;;;;;;;18.93;3.87;;;11.90;99.90;;;;;;5076386;28;20197;-84
2022/11/07 06:23:34;;;;;;;13.80;3.83;;;11.90;99.90;;;;;;5075510;28;20209;-79
2022/11/07 06:26:01;;;;;;;11.80;3.67;;;11.90;99.90;;;;;;5075458;28;20641;-82
2022/11/07 06:28:28;;;;;;;29.53;6.27;;;12.00;99.90;;;;;;5075544;28;20225;-84
2022/11/07 06:30:59;;;;;;;18.93;5.03;;;12.00;99.90;;;;;;5075790;28;20197;-81
2022/11/07 06:33:26;;;;;;;14.70;4.80;;;12.00;99.90;;;;;;5075427;28;20193;-80
2022/11/07 06:35:53;;;;;;;18.87;3.70;;;12.00;99.90;;;;;;5076092;28;20202;-80
2022/11/07 06:38:23;;;;;;;14.63;3.73;;;12.00;99.90;;;;;;5075744;28;20193;-81
2022/11/07 06:40:50;;;;;;;11.40;3.80;;;12.00;99.90;;;;;;5076043;28;20300;-83
2022/11/07 06:43:18;;;;;;;12.93;3.83;;;12.00;99.90;;;;;;5075649;28;20218;-80
2022/11/07 06:45:46;;;;;;;14.17;4.10;;;11.90;99.90;;;;;;5075784;28;20598;-83
2022/11/07 06:48:13;;;;;;;17.47;4.80;;;11.90;99.90;;;;;;5075633;28;20217;-81
2022/11/07 06:50:40;;;;;;;12.03;3.70;;;11.90;99.90;;;;;;5075674;28;20296;-83
2022/11/07 06:53:09;;;;;;;12.30;3.50;;;11.90;99.90;;;;;;5062982;28;20221;-84
2022/11/07 06:55:39;;;;;;;20.00;4.33;;;11.90;99.90;;;;;;5058605;28;20204;-82
2022/11/07 06:58:06;;;;;;;12.93;4.60;;;11.90;99.90;;;;;;5058622;28;20284;-78
2022/11/07 07:00:35;;;;;;;19.10;4.67;;;11.90;99.90;;;;;;5058286;28;20289;-79
2022/11/07 07:03:02;;;;;;;14.20;4.87;;;11.90;99.90;;;;;;5060026;28;20205;-84
2022/11/07 07:05:29;;;;;;;16.37;4.20;;;11.90;99.90;;;;;;5057186;28;20229;-80
2022/11/07 07:07:56;;;;;;;15.77;4.73;;;11.90;99.90;;;;;;5058097;28;20218;-85
2022/11/07 07:10:24;;;;;;;16.00;4.90;;;11.90;99.90;;;;;;5057792;28;20210;-79
2022/11/07 07:12:55;;;;;;;15.60;5.00;;;11.90;99.90;;;;;;5056609;28;20212;-80
2022/11/07 07:15:22;;;;;;;16.90;5.40;;;11.90;99.90;;;;;;5055316;28;20201;-79
2022/11/07 07:17:49;;;;;;;16.40;4.83;;;11.90;99.90;;;;;;5055505;28;20206;-79
2022/11/07 07:20:16;;;;;;;13.40;4.77;;;11.90;99.90;;;;;;5055270;28;20208;-79
2022/11/07 07:22:44;;;;;;;15.30;4.23;;;11.90;99.90;;;;;;5054569;28;20203;-79
2022/11/07 07:25:11;;;;;;;14.63;4.43;;;11.90;99.90;;;;;;5054574;28;20205;-79
2022/11/07 07:27:38;;;;;;;16.50;5.77;;;11.90;99.90;;;;;;5054536;28;20199;-81
2022/11/07 07:30:09;;;;;;;18.20;4.27;;;11.80;99.90;;;;;;5051084;28;20501;-80
2022/11/07 07:32:36;;;;;;;13.97;4.33;;;11.80;99.90;;;;;;5054365;28;20682;-81
2022/11/07 07:35:04;;;;;;;13.70;4.40;;;11.90;99.90;;;;;;5053490;28;20292;-79
2022/11/07 07:37:31;;;;;;;15.50;4.70;;;11.90;99.90;;;;;;5053967;28;20209;-81
2022/11/07 07:39:58;;;;;;;12.00;4.07;;;11.90;99.90;;;;;;5053737;28;20522;-83
2022/11/07 07:42:25;;;;;;;9.17;3.83;;;11.90;99.90;;;;;;5053492;28;20317;-79
2022/11/07 07:44:52;;;;;;;17.37;3.90;;;11.90;99.90;;;;;;5051287;28;20198;-84
2022/11/07 07:47:20;;;;;;;14.27;3.57;;;11.90;99.90;;;;;;5054063;28;20217;-82
2022/11/07 07:49:47;;;;;;;19.67;4.13;;;11.90;99.90;;;;;;5054208;28;20229;-87
2022/11/07 07:52:13;;;;;;;15.27;3.70;;;12.00;99.90;;;;;;5055226;28;20218;-78
2022/11/07 07:54:41;;;;;;;18.50;4.23;;;12.00;99.90;;;;;;5045116;28;20216;-81
2022/11/07 07:57:07;;;;;;;17.47;3.93;;;12.00;99.90;;;;;;5049891;28;20220;-81
2022/11/07 07:59:34;;;;;;;13.63;3.87;;;12.00;99.90;;;;;;5050838;28;20642;-85
2022/11/07 08:02:01;;;;;;;21.23;4.53;;;12.00;99.90;;;;;;5051419;28;20214;-79
2022/11/07 08:04:29;;;;;;;23.23;4.50;;;12.00;99.90;;;;;;5054307;28;20204;-84
2022/11/07 08:06:56;;;;;;;14.33;3.53;;;12.10;99.90;;;;;;5052627;28;20235;-85
2022/11/07 08:09:23;;;;;;;10.10;3.53;;;12.10;99.90;;;;;;5071911;28;20232;-88
2022/11/07 08:11:50;;;;;;;11.30;3.87;;;12.10;99.90;;;;;;5061520;28;20295;-83
2022/11/07 08:14:17;;;;;;;18.10;4.33;;;12.10;99.90;;;;;;5054097;28;20285;-79
2022/11/07 08:16:44;;;;;;;16.13;4.07;;;12.10;99.90;;;;;;5035211;28;20210;-82
2022/11/07 08:19:10;;;;;;;21.27;4.93;;;12.10;99.90;;;;;;5036449;28;20199;-87
2022/11/07 08:21:39;;;;;;;19.07;3.87;;;12.10;99.90;;;;;;5037899;28;20194;-82
2022/11/07 08:24:06;;;;;;;17.60;3.40;;;12.10;99.90;;;;;;5038224;28;20206;-86
2022/11/07 08:26:34;;;;;;;18.50;4.13;;;12.20;99.90;;;;;;5037042;28;20216;-88
2022/11/07 08:29:01;;;;;;;19.00;4.10;;;12.20;99.90;;;;;;5037677;28;20586;-79
2022/11/07 08:31:27;;;;;;;18.37;3.97;;;12.20;99.90;;;;;;5037445;28;20628;-85
2022/11/07 08:33:57;;;;;;;19.03;5.40;;;12.30;99.90;;;;;;5057575;28;20292;-88
2022/11/07 08:36:24;;;;;;;19.90;4.50;;;12.40;99.90;;;;;;5042279;28;20209;-78
2022/11/07 08:38:53;;;;;;;20.20;4.67;;;12.40;99.90;;;;;;5036209;28;20220;-79
2022/11/07 08:41:20;;;;;;;15.10;3.80;;;12.50;99.90;;;;;;5036617;28;20195;-81
2022/11/07 08:43:48;;;;;;;24.03;4.80;;;12.50;99.90;;;;;;5035761;28;20210;-82
2022/11/07 08:46:15;;;;;;;24.20;4.83;;;12.50;99.90;;;;;;5036596;28;20195;-87
2022/11/07 08:48:42;;;;;;;17.87;4.43;;;12.60;99.90;;;;;;5036173;28;20234;-81
2022/11/07 08:51:09;;;;;;;19.50;4.90;;;12.70;99.90;;;;;;5045546;28;20202;-81
2022/11/07 08:53:36;;;;;;;18.17;4.37;;;12.70;99.90;;;;;;5056367;28;20630;-87
2022/11/07 08:56:06;;;;;;;20.20;4.37;;;12.70;99.90;;;;;;5056626;28;20591;-82
2022/11/07 08:58:34;;;;;;;19.53;4.60;;;12.70;99.90;;;;;;5056977;28;20186;-86
2022/11/07 09:01:01;;;;;;;14.90;4.57;;;12.80;99.90;;;;;;5038146;28;20293;-85
2022/11/07 09:03:28;;;;;;;19.13;5.43;;;12.80;99.90;;;;;;5036955;28;20199;-83
2022/11/07 09:05:56;;;;;;;17.77;4.23;;;12.80;99.90;;;;;;5036439;28;20211;-79
2022/11/07 09:08:23;;;;;;;24.30;5.43;;;12.90;99.90;;;;;;5056071;28;20218;-79
2022/11/07 09:10:50;;;;;;;21.47;4.73;;;12.80;99.90;;;;;;5056001;28;20202;-80
2022/11/07 09:13:19;;;;;;;22.17;4.73;;;12.90;99.90;;;;;;5054946;28;20205;-77
2022/11/07 09:15:46;;;;;;;16.73;4.53;;;12.90;99.90;;;;;;5055447;28;20540;-83
2022/11/07 09:18:13;;;;;;;20.07;4.70;;;12.90;99.90;;;;;;5055873;28;20678;-83
2022/11/07 09:20:39;;;;;;;21.60;4.53;;;13.00;99.90;;;;;;5052429;28;20225;-89
2022/11/07 09:23:06;;;;;;;17.53;4.70;;;13.00;99.90;;;;;;5047525;28;20293;-86
2022/11/07 09:25:33;;;;;;;17.27;5.00;;;13.00;99.90;;;;;;5055095;28;20198;-78
2022/11/07 09:28:02;;;;;;;20.37;4.50;;;13.10;99.90;;;;;;5038228;28;20591;-80
2022/11/07 09:30:31;;;;;;;20.70;4.40;;;13.10;99.90;;;;;;5036149;28;20206;-84
2022/11/07 09:32:57;;;;;;;14.93;4.53;;;13.10;99.90;;;;;;5044106;28;20288;-83
2022/11/07 09:35:25;;;;;;;16.77;4.60;;;13.10;99.90;;;;;;5040866;28;20209;-78
2022/11/07 09:37:52;;;;;;;16.23;5.23;;;13.10;99.90;;;;;;5034432;28;20751;-76
2022/11/07 09:40:25;;;;;;;16.80;4.27;;;13.10;99.90;;;;;;5043408;28;20205;-80
2022/11/07 09:43:03;;;;;;;16.23;3.77;;;13.20;99.90;;;;;;5054734;28;20218;-88
2022/11/07 09:45:37;;;;;;;15.67;4.00;;;13.30;99.90;;;;;;5055023;28;20515;-79
2022/11/07 09:48:07;;;;;;;20.00;4.80;;;13.30;99.90;;;;;;5034142;28;20220;-78
2022/11/07 09:50:38;;;;;;;14.10;4.03;;;13.30;99.90;;;;;;5033395;28;20517;-86
2022/11/07 09:53:10;;;;;;;19.33;4.57;;;13.30;99.90;;;;;;5053558;28;20222;-82
2022/11/07 09:55:41;;;;;;;15.03;3.50;;;13.30;99.90;;;;;;5055618;28;20197;-78
2022/11/07 09:58:20;;;;;;;15.53;3.90;;;13.40;99.90;;;;;;5059623;28;20203;-83
2022/11/07 10:00:48;;;;;;;15.87;4.03;;;13.40;99.90;;;;;;5038386;28;20230;-80
2022/11/07 10:03:15;;;;;;;19.27;4.50;;;13.40;99.90;;;;;;5068625;28;20213;-81
2022/11/07 10:05:48;;;;;;;17.97;4.70;;;13.40;99.90;;;;;;5037190;28;20233;-78
2022/11/07 10:08:20;;;;;;;18.50;4.43;;;13.40;99.90;;;;;;5048297;28;20290;-86
2022/11/07 10:10:52;;;;;;;17.70;5.33;;;13.40;99.90;;;;;;5037383;28;20278;-83
2022/11/07 10:13:50;;;;;;;17.83;4.57;;;13.50;99.90;;;;;;5059260;28;20197;-84
2022/11/07 10:16:28;;;;;;;19.00;4.57;;;13.60;99.90;;;;;;5059877;28;20272;-89
2022/11/07 10:19:09;;;;;;;17.03;4.40;;;13.60;99.90;;;;;;5046648;28;20182;-82
2022/11/07 10:21:43;;;;;;;15.00;4.67;;;13.70;99.90;;;;;;5049964;28;20185;-91
2022/11/07 10:24:34;;;;;;;19.77;4.70;;;13.70;99.90;;;;;;5037738;28;20953;-93
2022/11/07 10:27:02;;;;;;;18.93;4.37;;;13.70;99.90;;;;;;5055663;28;20590;-82
2022/11/07 10:29:34;;;;;;;19.40;4.87;;;13.80;99.90;;;;;;5060231;28;20232;-85
2022/11/07 10:32:12;;;;;;;16.77;4.57;;;13.80;99.90;;;;;;5054521;28;20208;-84
2022/11/07 10:34:44;;;;;;;18.60;4.30;;;13.90;99.90;;;;;;5053791;28;20281;-79
2022/11/07 10:37:11;;;;;;;15.43;4.10;;;13.90;99.90;;;;;;5051792;28;20285;-77
2022/11/07 10:39:38;;;;;;;20.37;5.20;;;13.90;99.90;;;;;;5034561;28;20197;-80
2022/11/07 10:42:09;;;;;;;19.77;4.37;;;13.90;99.90;;;;;;5035068;28;20216;-88
2022/11/07 10:44:38;;;;;;;16.93;4.87;;;13.90;99.90;;;;;;5035672;28;20198;-91
2022/11/07 10:47:16;;;;;;;15.90;4.17;;;14.00;99.90;;;;;;5034987;28;20205;-89
2022/11/07 10:49:54;;;;;;;15.93;4.03;;;13.90;99.90;;;;;;5035002;28;20230;-93
2022/11/07 10:52:21;;;;;;;19.90;3.83;;;13.90;99.90;;;;;;5035238;28;20253;-93
2022/11/07 10:54:48;;;;;;;11.50;3.63;;;13.90;99.90;;;;;;5035510;28;20203;-87
2022/11/07 10:57:17;;;;;;;15.73;3.77;;;13.90;99.90;;;;;;5052140;28;20214;-84
2022/11/07 10:59:54;;;;;;;18.03;4.37;;;13.90;99.90;;;;;;5044198;28;20238;-87
2022/11/07 11:02:24;;;;;;;12.87;3.60;;;14.00;99.90;;;;;;5035647;28;20199;-89
2022/11/07 11:04:53;;;;;;;14.73;4.63;;;14.00;99.90;;;;;;5035142;28;20207;-88
2022/11/07 11:07:24;;;;;;;16.63;3.40;;;14.00;99.90;;;;;;5034946;28;20507;-89
2022/11/07 11:09:53;;;;;;;18.23;4.23;;;13.90;99.90;;;;;;5035139;28;20224;-81
2022/11/07 11:12:24;;;;;;;13.50;3.87;;;13.90;99.90;;;;;;5034929;28;20194;-82
2022/11/07 11:15:01;;;;;;;15.37;3.80;;;13.90;99.90;;;;;;5034926;28;20566;-87
2022/11/07 11:17:30;;;;;;;16.13;4.07;;;13.90;99.90;;;;;;5034707;28;20187;-90
2022/11/07 11:19:57;;;;;;;18.33;3.87;;;13.90;99.90;;;;;;5044763;28;20522;-88
2022/11/07 11:22:27;;;;;;;18.13;4.30;;;14.00;99.90;;;;;;5053894;28;20198;-88
2022/11/07 11:25:04;;;;;;;12.03;3.20;;;13.90;99.90;;;;;;5035162;28;20210;-91
2022/11/07 11:27:34;;;;;;;14.87;3.50;;;13.90;99.90;;;;;;5035792;28;20309;-91
2022/11/07 11:30:06;;;;;;;13.57;4.30;;;13.90;99.90;;;;;;5035160;28;20634;-89
2022/11/07 11:32:39;;;;;;;12.53;3.30;;;13.90;99.90;;;;;;5035018;28;20341;-87
2022/11/07 11:35:17;;;;;;;10.77;3.40;;;13.80;99.90;;;;;;5034700;28;20731;-89
2022/11/07 11:37:49;;;;;;;13.30;4.03;;;13.80;99.90;;;;;;5035435;28;20199;-88
2022/11/07 11:40:19;;;;;;;14.67;3.60;;;13.80;99.90;;;;;;5035019;28;20218;-85
2022/11/07 11:42:51;;;;;;;18.00;3.87;;;13.80;99.90;;;;;;5033454;28;20201;-81
2022/11/07 11:45:24;;;;;;;19.67;4.63;;;13.80;99.90;;;;;;5041893;28;20206;-85
2022/11/07 11:48:00;;;;;;;15.63;4.27;;;13.70;99.90;;;;;;5053917;28;20190;-82
2022/11/07 11:50:31;;;;;;;15.50;3.80;;;13.70;99.90;;;;;;5052986;28;20236;-81
2022/11/07 11:52:59;;;;;;;13.80;3.37;;;13.70;99.90;;;;;;5037130;28;20231;-82
2022/11/07 11:55:35;;;;;;;18.47;4.23;;;13.80;99.90;;;;;;5032443;28;20281;-81
2022/11/07 11:58:11;;;;;;;15.80;3.73;;;13.70;99.90;;;;;;5034104;28;20201;-85
2022/11/07 12:00:44;;;;;;;9.63;3.43;;;13.80;99.90;;;;;;5041112;28;20232;-85
2022/11/07 12:03:34;;;;;;;15.00;3.27;;;13.80;99.90;;;;;;5038382;28;20206;-86
2022/11/07 12:06:11;;;;;;;15.47;3.90;;;13.80;99.90;;;;;;5032980;28;20203;-80
2022/11/07 12:08:56;;;;;;;12.27;3.47;;;13.80;99.90;;;;;;5053118;28;20730;-84
2022/11/07 12:11:32;;;;;;;16.57;3.93;;;13.80;99.90;;;;;;5052667;28;20599;-81
2022/11/07 12:14:06;;;;;;;16.60;4.23;;;13.80;99.90;;;;;;5041925;28;20206;-81
2022/11/07 12:16:38;;;;;;;14.77;4.07;;;13.90;99.90;;;;;;5034612;28;20202;-83
2022/11/07 12:19:18;;;;;;;14.30;3.80;;;13.90;99.90;;;;;;5033046;28;20298;-83
2022/11/07 12:21:53;;;;;;;24.17;4.07;;;13.90;99.90;;;;;;5033151;28;20282;-82
2022/11/07 12:24:32;;;;;;;12.33;3.60;;;13.90;99.90;;;;;;5032965;28;20193;-82
2022/11/07 12:27:05;;;;;;;14.77;3.80;;;13.90;99.90;;;;;;5033122;28;20194;-85
2022/11/07 12:29:42;;;;;;;13.10;3.00;;;14.00;99.90;;;;;;5032486;28;20225;-86
2022/11/07 12:32:16;;;;;;;18.13;4.43;;;14.00;99.90;;;;;;5033786;28;20212;-92
2022/11/07 12:35:01;;;;;;;15.47;3.70;;;14.00;99.90;;;;;;5033873;28;20198;-90
2022/11/07 12:37:51;;;;;;;22.00;4.03;;;14.00;99.90;;;;;;5034821;28;20214;-95
2022/11/07 12:40:30;;;;;;;15.70;3.93;;;14.00;99.90;;;;;;5033523;28;20282;-91
2022/11/07 12:43:07;;;;;;;22.73;5.13;;;14.10;99.90;;;;;;5038188;28;20210;-91
2022/11/07 12:45:46;;;;;;;18.80;4.77;;;14.10;99.90;;;;;;5053102;28;20599;-87
2022/11/07 12:48:27;;;;;;;14.83;4.73;;;14.10;99.90;;;;;;5052271;28;20193;-93
2022/11/07 12:51:01;;;;;;;11.63;3.60;;;14.10;99.90;;;;;;5053396;28;20221;-89
2022/11/07 12:53:37;;;;;;;15.23;3.67;;;14.20;99.90;;;;;;5043746;28;20281;-91
2022/11/07 12:56:11;;;;;;;14.50;3.63;;;14.20;99.90;;;;;;5033320;28;20450;-89
2022/11/07 12:58:41;;;;;;;16.17;3.40;;;14.10;99.90;;;;;;5051935;28;20221;-94